logo
Rechercher aéroport 
image banner adimage banner adimage banner ad
image banner ad

SJ3F - Aldeia Kumen

Situé à Oiapoque, Brazil

ICAO - SJ3F, IATA -

Données fournies par Airmate  

Information générale

Coordonnées: N3°29'22" W51°29'5"
Élévation : 68 feet MSL.
Variation magnétique : -18.883333333° East
Voir autres Aéroports à Amapá

Données opérationnelles

Special qualification required
Heure actuelle UTC:
Heure actuelle locale:
Météo à : SBOI - Oiapoque ( 53 km )
TAF: TAF SBOI 281631Z 2818/2906 10005KT 7000 SCT020 BKN030 TX27/2818Z TN24/2906Z TEMPO 2818/2821 3000 TSRA BKN010 FEW030CB BECMG 2904/2906 2000 BR BKN005 RMK PFV
Voir NOTAMs / SUP AIP / TFR affectant cet aéroport [VIEW]
Fréquences de communication: [VIEW]

Pistes:

Identifiant RWYQFULongueur (ft)Largeur (ft)SurfaceLDA (ft)
09196959EARTH
27196959EARTH

Coordonnées de l'aéroport

Adresse: Oiapoque Brazil

Vue satellite de SJ3F